sensor_id;sensor_type;location;lat;lon;timestamp;P1;durP1;ratioP1;P2;durP2;ratioP2
83761;SDS011;73752;49.594;8.734;2024-03-22T00:02:54;19.23;;;11.23;;
83761;SDS011;73752;49.594;8.734;2024-03-22T00:05:55;17.42;;;10.63;;
83761;SDS011;73752;49.594;8.734;2024-03-22T00:08:55;20.85;;;11.52;;
83761;SDS011;73752;49.594;8.734;2024-03-22T00:11:56;18.15;;;11.13;;
83761;SDS011;73752;49.594;8.734;2024-03-22T00:14:56;17.50;;;11.13;;
83761;SDS011;73752;49.594;8.734;2024-03-22T00:17:56;28.80;;;12.25;;
83761;SDS011;73752;49.594;8.734;2024-03-22T00:20:57;19.30;;;11.20;;
83761;SDS011;73752;49.594;8.734;2024-03-22T00:23:57;22.48;;;10.80;;
83761;SDS011;73752;49.594;8.734;2024-03-22T00:26:58;21.75;;;11.20;;
83761;SDS011;73752;49.594;8.734;2024-03-22T00:29:58;16.73;;;10.82;;
83761;SDS011;73752;49.594;8.734;2024-03-22T00:32:58;19.58;;;10.98;;
83761;SDS011;73752;49.594;8.734;2024-03-22T00:35:58;20.95;;;12.00;;
83761;SDS011;73752;49.594;8.734;2024-03-22T00:38:59;17.90;;;11.30;;
83761;SDS011;73752;49.594;8.734;2024-03-22T00:41:59;22.73;;;11.73;;
83761;SDS011;73752;49.594;8.734;2024-03-22T00:44:59;24.50;;;12.02;;
83761;SDS011;73752;49.594;8.734;2024-03-22T00:48:00;21.35;;;12.38;;
83761;SDS011;73752;49.594;8.734;2024-03-22T00:51:00;21.00;;;12.20;;
83761;SDS011;73752;49.594;8.734;2024-03-22T00:54:00;21.77;;;11.52;;
83761;SDS011;73752;49.594;8.734;2024-03-22T00:57:01;20.15;;;11.85;;
83761;SDS011;73752;49.594;8.734;2024-03-22T01:00:02;19.55;;;11.35;;
83761;SDS011;73752;49.594;8.734;2024-03-22T01:03:02;23.15;;;12.40;;
83761;SDS011;73752;49.594;8.734;2024-03-22T01:06:03;21.17;;;11.88;;
83761;SDS011;73752;49.594;8.734;2024-03-22T01:09:03;21.27;;;10.88;;
83761;SDS011;73752;49.594;8.734;2024-03-22T01:12:03;20.80;;;11.32;;
83761;SDS011;73752;49.594;8.734;2024-03-22T01:15:05;33.72;;;15.50;;
83761;SDS011;73752;49.594;8.734;2024-03-22T01:18:06;29.27;;;14.20;;
83761;SDS011;73752;49.594;8.734;2024-03-22T01:21:07;27.25;;;14.20;;
83761;SDS011;73752;49.594;8.734;2024-03-22T01:24:07;25.60;;;13.80;;
83761;SDS011;73752;49.594;8.734;2024-03-22T01:27:07;23.05;;;12.50;;
83761;SDS011;73752;49.594;8.734;2024-03-22T01:30:08;25.20;;;13.07;;
83761;SDS011;73752;49.594;8.734;2024-03-22T01:33:08;24.27;;;13.38;;
83761;SDS011;73752;49.594;8.734;2024-03-22T01:36:08;25.85;;;13.07;;
83761;SDS011;73752;49.594;8.734;2024-03-22T01:39:09;24.17;;;12.85;;
83761;SDS011;73752;49.594;8.734;2024-03-22T01:42:09;24.00;;;13.55;;
83761;SDS011;73752;49.594;8.734;2024-03-22T01:45:09;23.05;;;13.20;;
83761;SDS011;73752;49.594;8.734;2024-03-22T01:48:13;22.65;;;14.07;;
83761;SDS011;73752;49.594;8.734;2024-03-22T01:51:14;23.05;;;12.98;;
83761;SDS011;73752;49.594;8.734;2024-03-22T01:54:15;19.10;;;12.60;;
83761;SDS011;73752;49.594;8.734;2024-03-22T01:57:16;21.67;;;11.85;;
83761;SDS011;73752;49.594;8.734;2024-03-22T02:00:17;26.27;;;12.98;;
83761;SDS011;73752;49.594;8.734;2024-03-22T02:03:17;20.98;;;13.40;;
83761;SDS011;73752;49.594;8.734;2024-03-22T02:06:17;24.55;;;13.02;;
83761;SDS011;73752;49.594;8.734;2024-03-22T02:09:18;23.08;;;13.82;;
83761;SDS011;73752;49.594;8.734;2024-03-22T02:12:20;21.35;;;13.80;;
83761;SDS011;73752;49.594;8.734;2024-03-22T02:15:21;25.30;;;13.95;;
83761;SDS011;73752;49.594;8.734;2024-03-22T02:18:21;31.73;;;16.10;;
83761;SDS011;73752;49.594;8.734;2024-03-22T02:21:21;26.35;;;14.95;;
83761;SDS011;73752;49.594;8.734;2024-03-22T02:24:22;24.70;;;14.57;;
83761;SDS011;73752;49.594;8.734;2024-03-22T02:27:22;26.85;;;14.65;;
83761;SDS011;73752;49.594;8.734;2024-03-22T02:30:23;30.15;;;15.05;;
83761;SDS011;73752;49.594;8.734;2024-03-22T02:33:23;29.15;;;14.73;;
83761;SDS011;73752;49.594;8.734;2024-03-22T02:36:23;22.05;;;14.18;;
83761;SDS011;73752;49.594;8.734;2024-03-22T02:39:24;30.30;;;16.40;;
83761;SDS011;73752;49.594;8.734;2024-03-22T02:42:25;34.03;;;15.73;;
83761;SDS011;73752;49.594;8.734;2024-03-22T02:45:26;29.90;;;16.60;;
83761;SDS011;73752;49.594;8.734;2024-03-22T02:48:26;27.02;;;15.10;;
83761;SDS011;73752;49.594;8.734;2024-03-22T02:51:28;22.20;;;13.25;;
83761;SDS011;73752;49.594;8.734;2024-03-22T02:54:28;23.35;;;13.90;;
83761;SDS011;73752;49.594;8.734;2024-03-22T02:57:29;25.92;;;14.82;;
83761;SDS011;73752;49.594;8.734;2024-03-22T03:00:29;28.95;;;15.43;;
83761;SDS011;73752;49.594;8.734;2024-03-22T03:03:29;24.50;;;14.75;;
83761;SDS011;73752;49.594;8.734;2024-03-22T03:06:30;30.63;;;14.75;;
83761;SDS011;73752;49.594;8.734;2024-03-22T03:09:30;26.88;;;14.10;;
83761;SDS011;73752;49.594;8.734;2024-03-22T03:12:30;23.60;;;13.07;;
83761;SDS011;73752;49.594;8.734;2024-03-22T03:15:31;27.13;;;14.95;;
83761;SDS011;73752;49.594;8.734;2024-03-22T03:18:31;27.90;;;16.05;;
83761;SDS011;73752;49.594;8.734;2024-03-22T03:21:31;31.45;;;15.45;;
83761;SDS011;73752;49.594;8.734;2024-03-22T03:24:32;30.05;;;16.02;;
83761;SDS011;73752;49.594;8.734;2024-03-22T03:27:32;30.30;;;15.98;;
83761;SDS011;73752;49.594;8.734;2024-03-22T03:30:34;28.15;;;15.75;;
83761;SDS011;73752;49.594;8.734;2024-03-22T03:33:34;29.38;;;16.98;;
83761;SDS011;73752;49.594;8.734;2024-03-22T03:36:35;32.13;;;16.95;;
83761;SDS011;73752;49.594;8.734;2024-03-22T03:39:35;34.65;;;16.73;;
83761;SDS011;73752;49.594;8.734;2024-03-22T03:42:36;32.00;;;16.50;;
83761;SDS011;73752;49.594;8.734;2024-03-22T03:45:36;29.92;;;16.27;;
83761;SDS011;73752;49.594;8.734;2024-03-22T03:48:37;35.33;;;17.25;;
83761;SDS011;73752;49.594;8.734;2024-03-22T03:51:37;32.20;;;17.38;;
83761;SDS011;73752;49.594;8.734;2024-03-22T03:54:37;34.50;;;16.70;;
83761;SDS011;73752;49.594;8.734;2024-03-22T03:57:38;28.45;;;15.40;;
83761;SDS011;73752;49.594;8.734;2024-03-22T04:00:38;29.02;;;15.73;;
83761;SDS011;73752;49.594;8.734;2024-03-22T04:03:38;30.13;;;14.65;;
83761;SDS011;73752;49.594;8.734;2024-03-22T04:06:39;25.30;;;14.18;;
83761;SDS011;73752;49.594;8.734;2024-03-22T04:09:39;26.83;;;13.75;;
83761;SDS011;73752;49.594;8.734;2024-03-22T04:12:39;29.30;;;14.90;;
83761;SDS011;73752;49.594;8.734;2024-03-22T04:15:39;28.83;;;14.52;;
83761;SDS011;73752;49.594;8.734;2024-03-22T04:18:40;25.50;;;14.25;;
83761;SDS011;73752;49.594;8.734;2024-03-22T04:21:40;23.27;;;14.38;;
83761;SDS011;73752;49.594;8.734;2024-03-22T04:24:40;28.50;;;14.88;;
83761;SDS011;73752;49.594;8.734;2024-03-22T04:27:41;28.40;;;15.80;;
83761;SDS011;73752;49.594;8.734;2024-03-22T04:30:41;28.98;;;15.95;;
83761;SDS011;73752;49.594;8.734;2024-03-22T04:33:41;36.75;;;17.13;;
83761;SDS011;73752;49.594;8.734;2024-03-22T04:36:42;29.70;;;16.48;;
83761;SDS011;73752;49.594;8.734;2024-03-22T04:39:42;33.55;;;18.23;;
83761;SDS011;73752;49.594;8.734;2024-03-22T04:42:46;34.40;;;18.05;;
83761;SDS011;73752;49.594;8.734;2024-03-22T04:45:46;31.98;;;17.70;;
83761;SDS011;73752;49.594;8.734;2024-03-22T04:48:48;26.92;;;15.88;;
83761;SDS011;73752;49.594;8.734;2024-03-22T04:51:48;30.00;;;15.90;;
83761;SDS011;73752;49.594;8.734;2024-03-22T04:54:49;23.90;;;15.32;;
83761;SDS011;73752;49.594;8.734;2024-03-22T04:57:49;31.95;;;17.08;;
83761;SDS011;73752;49.594;8.734;2024-03-22T05:00:56;27.10;;;16.42;;
83761;SDS011;73752;49.594;8.734;2024-03-22T05:03:57;28.10;;;14.98;;
83761;SDS011;73752;49.594;8.734;2024-03-22T05:06:57;28.60;;;14.93;;
83761;SDS011;73752;49.594;8.734;2024-03-22T05:09:57;24.60;;;13.68;;
83761;SDS011;73752;49.594;8.734;2024-03-22T05:12:58;27.88;;;14.93;;
83761;SDS011;73752;49.594;8.734;2024-03-22T05:15:58;27.15;;;14.32;;
83761;SDS011;73752;49.594;8.734;2024-03-22T05:18:59;28.17;;;14.88;;
83761;SDS011;73752;49.594;8.734;2024-03-22T05:21:59;30.73;;;15.73;;
83761;SDS011;73752;49.594;8.734;2024-03-22T05:25:00;28.92;;;15.38;;
83761;SDS011;73752;49.594;8.734;2024-03-22T05:28:00;34.85;;;16.90;;
83761;SDS011;73752;49.594;8.734;2024-03-22T05:31:00;30.55;;;16.65;;
83761;SDS011;73752;49.594;8.734;2024-03-22T05:34:01;24.77;;;13.77;;
83761;SDS011;73752;49.594;8.734;2024-03-22T05:37:01;24.88;;;14.18;;
83761;SDS011;73752;49.594;8.734;2024-03-22T05:40:02;22.60;;;13.93;;
83761;SDS011;73752;49.594;8.734;2024-03-22T05:43:04;27.20;;;15.38;;
83761;SDS011;73752;49.594;8.734;2024-03-22T05:46:05;30.98;;;16.70;;
83761;SDS011;73752;49.594;8.734;2024-03-22T05:49:05;27.88;;;14.70;;
83761;SDS011;73752;49.594;8.734;2024-03-22T05:52:06;25.08;;;15.20;;
83761;SDS011;73752;49.594;8.734;2024-03-22T05:55:06;26.08;;;14.70;;
83761;SDS011;73752;49.594;8.734;2024-03-22T05:58:07;26.17;;;13.80;;
83761;SDS011;73752;49.594;8.734;2024-03-22T06:01:09;26.80;;;14.45;;
83761;SDS011;73752;49.594;8.734;2024-03-22T06:04:09;26.45;;;13.50;;
83761;SDS011;73752;49.594;8.734;2024-03-22T06:07:10;27.88;;;14.13;;
83761;SDS011;73752;49.594;8.734;2024-03-22T06:10:10;25.38;;;11.88;;
83761;SDS011;73752;49.594;8.734;2024-03-22T06:13:10;24.63;;;13.57;;
83761;SDS011;73752;49.594;8.734;2024-03-22T06:16:11;20.83;;;12.52;;
83761;SDS011;73752;49.594;8.734;2024-03-22T06:19:11;21.70;;;12.07;;
83761;SDS011;73752;49.594;8.734;2024-03-22T06:22:11;22.63;;;12.52;;
83761;SDS011;73752;49.594;8.734;2024-03-22T06:25:12;22.55;;;11.98;;
83761;SDS011;73752;49.594;8.734;2024-03-22T06:28:12;20.73;;;12.00;;
83761;SDS011;73752;49.594;8.734;2024-03-22T06:31:12;21.08;;;11.93;;
83761;SDS011;73752;49.594;8.734;2024-03-22T06:34:13;19.80;;;10.88;;
83761;SDS011;73752;49.594;8.734;2024-03-22T06:37:13;23.83;;;12.70;;
83761;SDS011;73752;49.594;8.734;2024-03-22T06:40:13;22.42;;;13.85;;
83761;SDS011;73752;49.594;8.734;2024-03-22T06:43:14;24.40;;;12.30;;
83761;SDS011;73752;49.594;8.734;2024-03-22T06:46:14;23.73;;;13.45;;
83761;SDS011;73752;49.594;8.734;2024-03-22T06:49:15;18.38;;;11.68;;
83761;SDS011;73752;49.594;8.734;2024-03-22T06:52:15;22.08;;;12.10;;
83761;SDS011;73752;49.594;8.734;2024-03-22T06:55:16;26.58;;;13.55;;
83761;SDS011;73752;49.594;8.734;2024-03-22T06:58:16;17.45;;;11.63;;
83761;SDS011;73752;49.594;8.734;2024-03-22T07:01:17;23.63;;;12.38;;
83761;SDS011;73752;49.594;8.734;2024-03-22T07:04:17;23.83;;;13.10;;
83761;SDS011;73752;49.594;8.734;2024-03-22T07:07:18;23.73;;;13.98;;
83761;SDS011;73752;49.594;8.734;2024-03-22T07:10:18;24.42;;;13.98;;
83761;SDS011;73752;49.594;8.734;2024-03-22T07:13:19;28.23;;;13.60;;
83761;SDS011;73752;49.594;8.734;2024-03-22T07:16:19;28.58;;;14.27;;
83761;SDS011;73752;49.594;8.734;2024-03-22T07:19:20;27.42;;;13.90;;
83761;SDS011;73752;49.594;8.734;2024-03-22T07:22:23;28.27;;;13.83;;
83761;SDS011;73752;49.594;8.734;2024-03-22T07:25:23;30.02;;;13.30;;
83761;SDS011;73752;49.594;8.734;2024-03-22T07:28:23;23.85;;;13.20;;
83761;SDS011;73752;49.594;8.734;2024-03-22T07:31:24;27.25;;;13.82;;
83761;SDS011;73752;49.594;8.734;2024-03-22T07:34:24;26.27;;;12.75;;
83761;SDS011;73752;49.594;8.734;2024-03-22T07:37:24;21.73;;;12.20;;
83761;SDS011;73752;49.594;8.734;2024-03-22T07:40:24;25.77;;;14.10;;
83761;SDS011;73752;49.594;8.734;2024-03-22T07:43:25;28.30;;;13.00;;
83761;SDS011;73752;49.594;8.734;2024-03-22T07:46:26;26.92;;;13.85;;
83761;SDS011;73752;49.594;8.734;2024-03-22T07:49:26;20.85;;;13.07;;
83761;SDS011;73752;49.594;8.734;2024-03-22T07:52:27;27.23;;;12.43;;
83761;SDS011;73752;49.594;8.734;2024-03-22T07:55:27;21.42;;;11.63;;
83761;SDS011;73752;49.594;8.734;2024-03-22T07:58:27;20.75;;;11.63;;
83761;SDS011;73752;49.594;8.734;2024-03-22T08:01:28;20.27;;;12.00;;
83761;SDS011;73752;49.594;8.734;2024-03-22T08:04:28;23.77;;;11.50;;
83761;SDS011;73752;49.594;8.734;2024-03-22T08:07:29;24.00;;;13.73;;
83761;SDS011;73752;49.594;8.734;2024-03-22T08:10:29;22.60;;;12.07;;
83761;SDS011;73752;49.594;8.734;2024-03-22T08:13:29;20.73;;;12.23;;
83761;SDS011;73752;49.594;8.734;2024-03-22T08:16:30;19.42;;;11.50;;
83761;SDS011;73752;49.594;8.734;2024-03-22T08:19:30;24.80;;;12.35;;
83761;SDS011;73752;49.594;8.734;2024-03-22T08:22:30;17.67;;;11.18;;
83761;SDS011;73752;49.594;8.734;2024-03-22T08:25:31;22.73;;;12.23;;
83761;SDS011;73752;49.594;8.734;2024-03-22T08:28:31;19.92;;;12.02;;
83761;SDS011;73752;49.594;8.734;2024-03-22T08:31:31;19.88;;;12.40;;
83761;SDS011;73752;49.594;8.734;2024-03-22T08:34:32;23.13;;;11.93;;
83761;SDS011;73752;49.594;8.734;2024-03-22T08:37:33;28.63;;;13.88;;
83761;SDS011;73752;49.594;8.734;2024-03-22T08:40:33;21.80;;;10.95;;
83761;SDS011;73752;49.594;8.734;2024-03-22T08:43:34;18.55;;;11.52;;
83761;SDS011;73752;49.594;8.734;2024-03-22T08:46:34;19.52;;;11.90;;
83761;SDS011;73752;49.594;8.734;2024-03-22T08:49:35;16.67;;;11.55;;
83761;SDS011;73752;49.594;8.734;2024-03-22T08:52:36;17.10;;;11.05;;
83761;SDS011;73752;49.594;8.734;2024-03-22T08:55:36;18.45;;;11.00;;
83761;SDS011;73752;49.594;8.734;2024-03-22T08:58:36;21.10;;;12.73;;
83761;SDS011;73752;49.594;8.734;2024-03-22T09:01:37;22.10;;;12.82;;
83761;SDS011;73752;49.594;8.734;2024-03-22T09:04:38;19.52;;;12.30;;
83761;SDS011;73752;49.594;8.734;2024-03-22T09:07:38;23.42;;;12.32;;
83761;SDS011;73752;49.594;8.734;2024-03-22T09:10:38;19.85;;;10.93;;
83761;SDS011;73752;49.594;8.734;2024-03-22T09:13:39;15.07;;;9.27;;
83761;SDS011;73752;49.594;8.734;2024-03-22T09:16:39;12.52;;;8.60;;
83761;SDS011;73752;49.594;8.734;2024-03-22T09:19:40;16.80;;;8.30;;
83761;SDS011;73752;49.594;8.734;2024-03-22T09:22:41;14.65;;;7.78;;
83761;SDS011;73752;49.594;8.734;2024-03-22T09:25:42;13.52;;;8.20;;
83761;SDS011;73752;49.594;8.734;2024-03-22T09:28:45;13.38;;;8.48;;
83761;SDS011;73752;49.594;8.734;2024-03-22T09:31:46;11.32;;;7.95;;
83761;SDS011;73752;49.594;8.734;2024-03-22T09:34:48;11.63;;;7.15;;
83761;SDS011;73752;49.594;8.734;2024-03-22T09:37:49;11.10;;;7.38;;
83761;SDS011;73752;49.594;8.734;2024-03-22T09:40:49;10.63;;;7.03;;
83761;SDS011;73752;49.594;8.734;2024-03-22T09:43:54;17.75;;;7.47;;
83761;SDS011;73752;49.594;8.734;2024-03-22T09:49:59;11.00;;;6.05;;
83761;SDS011;73752;49.594;8.734;2024-03-22T09:53:01;9.32;;;5.97;;
83761;SDS011;73752;49.594;8.734;2024-03-22T09:56:03;14.98;;;7.10;;
83761;SDS011;73752;49.594;8.734;2024-03-22T09:59:07;14.57;;;7.53;;
83761;SDS011;73752;49.594;8.734;2024-03-22T10:02:09;12.73;;;7.20;;
83761;SDS011;73752;49.594;8.734;2024-03-22T10:05:11;8.05;;;5.65;;
83761;SDS011;73752;49.594;8.734;2024-03-22T10:08:11;10.23;;;5.43;;
83761;SDS011;73752;49.594;8.734;2024-03-22T10:11:12;12.13;;;6.18;;
83761;SDS011;73752;49.594;8.734;2024-03-22T10:14:12;6.97;;;5.03;;
83761;SDS011;73752;49.594;8.734;2024-03-22T10:17:13;6.40;;;4.53;;
83761;SDS011;73752;49.594;8.734;2024-03-22T10:20:13;9.07;;;5.43;;
83761;SDS011;73752;49.594;8.734;2024-03-22T10:23:14;8.10;;;5.70;;
83761;SDS011;73752;49.594;8.734;2024-03-22T10:26:14;8.05;;;4.70;;
83761;SDS011;73752;49.594;8.734;2024-03-22T10:29:15;10.77;;;5.38;;
83761;SDS011;73752;49.594;8.734;2024-03-22T10:32:15;10.43;;;5.82;;
83761;SDS011;73752;49.594;8.734;2024-03-22T10:35:16;7.78;;;5.60;;
83761;SDS011;73752;49.594;8.734;2024-03-22T10:38:18;7.97;;;4.93;;
83761;SDS011;73752;49.594;8.734;2024-03-22T10:41:19;8.15;;;5.65;;
83761;SDS011;73752;49.594;8.734;2024-03-22T10:44:20;11.63;;;6.07;;
83761;SDS011;73752;49.594;8.734;2024-03-22T10:47:21;13.95;;;6.05;;
83761;SDS011;73752;49.594;8.734;2024-03-22T10:50:28;9.65;;;6.28;;
83761;SDS011;73752;49.594;8.734;2024-03-22T10:53:30;12.32;;;6.07;;
83761;SDS011;73752;49.594;8.734;2024-03-22T10:56:32;9.23;;;6.30;;
83761;SDS011;73752;49.594;8.734;2024-03-22T10:59:33;10.07;;;6.88;;
83761;SDS011;73752;49.594;8.734;2024-03-22T11:02:34;13.35;;;6.75;;
83761;SDS011;73752;49.594;8.734;2024-03-22T11:05:44;13.55;;;6.63;;
83761;SDS011;73752;49.594;8.734;2024-03-22T11:08:49;12.02;;;6.65;;
83761;SDS011;73752;49.594;8.734;2024-03-22T11:11:51;13.52;;;7.75;;
83761;SDS011;73752;49.594;8.734;2024-03-22T11:14:53;17.42;;;6.78;;
83761;SDS011;73752;49.594;8.734;2024-03-22T11:17:53;10.10;;;6.85;;
83761;SDS011;73752;49.594;8.734;2024-03-22T11:20:54;15.75;;;7.63;;
83761;SDS011;73752;49.594;8.734;2024-03-22T11:23:54;10.07;;;5.57;;
83761;SDS011;73752;49.594;8.734;2024-03-22T11:26:55;12.15;;;6.43;;
83761;SDS011;73752;49.594;8.734;2024-03-22T11:29:55;9.95;;;6.13;;
83761;SDS011;73752;49.594;8.734;2024-03-22T11:32:55;10.85;;;6.20;;
83761;SDS011;73752;49.594;8.734;2024-03-22T11:35:58;9.63;;;6.15;;
83761;SDS011;73752;49.594;8.734;2024-03-22T11:38:59;9.48;;;5.60;;
83761;SDS011;73752;49.594;8.734;2024-03-22T11:42:01;11.30;;;6.38;;
83761;SDS011;73752;49.594;8.734;2024-03-22T11:45:04;10.68;;;6.35;;
83761;SDS011;73752;49.594;8.734;2024-03-22T11:48:07;12.27;;;5.82;;
83761;SDS011;73752;49.594;8.734;2024-03-22T11:51:08;16.70;;;6.63;;
83761;SDS011;73752;49.594;8.734;2024-03-22T11:54:08;8.60;;;5.25;;
83761;SDS011;73752;49.594;8.734;2024-03-22T11:57:09;9.40;;;5.50;;
83761;SDS011;73752;49.594;8.734;2024-03-22T12:00:09;6.93;;;5.43;;
83761;SDS011;73752;49.594;8.734;2024-03-22T12:03:12;10.30;;;6.03;;
83761;SDS011;73752;49.594;8.734;2024-03-22T12:06:12;9.68;;;5.88;;
83761;SDS011;73752;49.594;8.734;2024-03-22T12:09:14;11.30;;;5.72;;
83761;SDS011;73752;49.594;8.734;2024-03-22T12:12:15;8.73;;;5.70;;
83761;SDS011;73752;49.594;8.734;2024-03-22T12:15:15;7.18;;;4.95;;
83761;SDS011;73752;49.594;8.734;2024-03-22T12:18:15;10.38;;;6.00;;
83761;SDS011;73752;49.594;8.734;2024-03-22T12:21:16;8.32;;;5.10;;
83761;SDS011;73752;49.594;8.734;2024-03-22T12:24:16;8.10;;;5.13;;
83761;SDS011;73752;49.594;8.734;2024-03-22T12:27:17;12.88;;;5.75;;
83761;SDS011;73752;49.594;8.734;2024-03-22T12:30:17;12.00;;;5.82;;
83761;SDS011;73752;49.594;8.734;2024-03-22T12:33:18;8.68;;;4.75;;
83761;SDS011;73752;49.594;8.734;2024-03-22T12:36:19;7.60;;;5.07;;
83761;SDS011;73752;49.594;8.734;2024-03-22T12:39:19;9.43;;;5.45;;
83761;SDS011;73752;49.594;8.734;2024-03-22T12:42:20;9.27;;;4.88;;
83761;SDS011;73752;49.594;8.734;2024-03-22T12:45:20;11.88;;;5.18;;
83761;SDS011;73752;49.594;8.734;2024-03-22T12:48:21;7.53;;;4.82;;
83761;SDS011;73752;49.594;8.734;2024-03-22T12:51:21;9.05;;;5.20;;
83761;SDS011;73752;49.594;8.734;2024-03-22T12:54:21;10.43;;;6.43;;
83761;SDS011;73752;49.594;8.734;2024-03-22T12:57:21;8.75;;;4.80;;
83761;SDS011;73752;49.594;8.734;2024-03-22T13:00:22;11.80;;;5.63;;
83761;SDS011;73752;49.594;8.734;2024-03-22T13:03:22;10.45;;;5.57;;
83761;SDS011;73752;49.594;8.734;2024-03-22T13:06:22;10.70;;;5.65;;
83761;SDS011;73752;49.594;8.734;2024-03-22T13:09:23;6.63;;;5.10;;
83761;SDS011;73752;49.594;8.734;2024-03-22T13:12:23;11.60;;;6.30;;
83761;SDS011;73752;49.594;8.734;2024-03-22T13:15:23;10.60;;;4.95;;
83761;SDS011;73752;49.594;8.734;2024-03-22T13:18:24;10.45;;;4.72;;
83761;SDS011;73752;49.594;8.734;2024-03-22T13:21:24;11.77;;;4.50;;
83761;SDS011;73752;49.594;8.734;2024-03-22T13:24:25;9.65;;;5.47;;
83761;SDS011;73752;49.594;8.734;2024-03-22T13:27:25;9.43;;;4.43;;
83761;SDS011;73752;49.594;8.734;2024-03-22T13:30:26;8.63;;;6.13;;
83761;SDS011;73752;49.594;8.734;2024-03-22T13:33:27;9.55;;;4.70;;
83761;SDS011;73752;49.594;8.734;2024-03-22T13:36:27;9.95;;;5.28;;
83761;SDS011;73752;49.594;8.734;2024-03-22T13:39:28;7.35;;;4.43;;
83761;SDS011;73752;49.594;8.734;2024-03-22T13:42:31;11.98;;;5.18;;
83761;SDS011;73752;49.594;8.734;2024-03-22T13:45:31;8.45;;;4.18;;
83761;SDS011;73752;49.594;8.734;2024-03-22T13:48:32;9.45;;;4.50;;
83761;SDS011;73752;49.594;8.734;2024-03-22T13:51:32;7.88;;;4.38;;
83761;SDS011;73752;49.594;8.734;2024-03-22T13:54:34;7.15;;;4.22;;
83761;SDS011;73752;49.594;8.734;2024-03-22T13:57:35;11.52;;;4.78;;
83761;SDS011;73752;49.594;8.734;2024-03-22T14:00:35;7.78;;;4.65;;
83761;SDS011;73752;49.594;8.734;2024-03-22T14:03:35;6.32;;;5.10;;
83761;SDS011;73752;49.594;8.734;2024-03-22T14:06:36;8.15;;;4.40;;
83761;SDS011;73752;49.594;8.734;2024-03-22T14:09:37;10.40;;;4.47;;
83761;SDS011;73752;49.594;8.734;2024-03-22T14:12:39;7.35;;;5.18;;
83761;SDS011;73752;49.594;8.734;2024-03-22T14:15:39;10.27;;;5.10;;
83761;SDS011;73752;49.594;8.734;2024-03-22T14:18:40;7.88;;;4.50;;
83761;SDS011;73752;49.594;8.734;2024-03-22T14:21:40;8.55;;;4.43;;
83761;SDS011;73752;49.594;8.734;2024-03-22T14:24:40;6.95;;;4.53;;
83761;SDS011;73752;49.594;8.734;2024-03-22T14:27:41;12.88;;;4.70;;
83761;SDS011;73752;49.594;8.734;2024-03-22T14:30:45;11.98;;;5.68;;
83761;SDS011;73752;49.594;8.734;2024-03-22T14:33:45;6.93;;;4.07;;
83761;SDS011;73752;49.594;8.734;2024-03-22T14:36:46;12.75;;;5.32;;
83761;SDS011;73752;49.594;8.734;2024-03-22T14:39:46;7.03;;;4.80;;
83761;SDS011;73752;49.594;8.734;2024-03-22T14:42:46;7.28;;;4.80;;
83761;SDS011;73752;49.594;8.734;2024-03-22T14:45:46;11.38;;;4.75;;
83761;SDS011;73752;49.594;8.734;2024-03-22T14:48:47;8.25;;;4.47;;
83761;SDS011;73752;49.594;8.734;2024-03-22T14:51:47;8.00;;;4.18;;
83761;SDS011;73752;49.594;8.734;2024-03-22T14:54:47;6.53;;;4.47;;
83761;SDS011;73752;49.594;8.734;2024-03-22T14:57:48;8.52;;;4.47;;
83761;SDS011;73752;49.594;8.734;2024-03-22T15:00:54;12.55;;;5.65;;
83761;SDS011;73752;49.594;8.734;2024-03-22T15:03:55;7.82;;;5.47;;
83761;SDS011;73752;49.594;8.734;2024-03-22T15:06:56;11.65;;;5.07;;
83761;SDS011;73752;49.594;8.734;2024-03-22T15:09:56;9.82;;;4.97;;
83761;SDS011;73752;49.594;8.734;2024-03-22T15:12:56;9.63;;;5.03;;
83761;SDS011;73752;49.594;8.734;2024-03-22T15:15:57;9.25;;;5.53;;
83761;SDS011;73752;49.594;8.734;2024-03-22T15:18:59;12.63;;;6.03;;
83761;SDS011;73752;49.594;8.734;2024-03-22T15:21:59;13.35;;;5.60;;
83761;SDS011;73752;49.594;8.734;2024-03-22T15:25:00;8.68;;;5.68;;
83761;SDS011;73752;49.594;8.734;2024-03-22T15:28:00;10.65;;;5.15;;
83761;SDS011;73752;49.594;8.734;2024-03-22T15:31:00;7.70;;;4.95;;
83761;SDS011;73752;49.594;8.734;2024-03-22T15:34:01;10.65;;;5.47;;
83761;SDS011;73752;49.594;8.734;2024-03-22T15:37:01;10.57;;;5.25;;
83761;SDS011;73752;49.594;8.734;2024-03-22T15:40:01;7.70;;;4.75;;
83761;SDS011;73752;49.594;8.734;2024-03-22T15:43:01;7.70;;;4.88;;
83761;SDS011;73752;49.594;8.734;2024-03-22T15:46:06;6.93;;;4.57;;
83761;SDS011;73752;49.594;8.734;2024-03-22T15:49:07;11.32;;;5.20;;
83761;SDS011;73752;49.594;8.734;2024-03-22T15:52:07;6.78;;;4.68;;
83761;SDS011;73752;49.594;8.734;2024-03-22T15:55:07;9.48;;;4.57;;
83761;SDS011;73752;49.594;8.734;2024-03-22T15:58:08;9.75;;;5.55;;
83761;SDS011;73752;49.594;8.734;2024-03-22T16:01:09;14.45;;;5.43;;
83761;SDS011;73752;49.594;8.734;2024-03-22T16:04:10;10.32;;;5.13;;
83761;SDS011;73752;49.594;8.734;2024-03-22T16:07:10;11.18;;;5.25;;
83761;SDS011;73752;49.594;8.734;2024-03-22T16:10:12;9.88;;;5.18;;
83761;SDS011;73752;49.594;8.734;2024-03-22T16:13:12;10.15;;;5.50;;
83761;SDS011;73752;49.594;8.734;2024-03-22T16:16:13;10.10;;;5.30;;
83761;SDS011;73752;49.594;8.734;2024-03-22T16:19:13;12.20;;;5.80;;
83761;SDS011;73752;49.594;8.734;2024-03-22T16:22:13;13.85;;;5.43;;
83761;SDS011;73752;49.594;8.734;2024-03-22T16:25:14;9.45;;;5.00;;
83761;SDS011;73752;49.594;8.734;2024-03-22T16:28:14;12.57;;;4.78;;
83761;SDS011;73752;49.594;8.734;2024-03-22T16:31:14;13.00;;;4.90;;
83761;SDS011;73752;49.594;8.734;2024-03-22T16:34:15;10.60;;;5.13;;
83761;SDS011;73752;49.594;8.734;2024-03-22T16:37:16;8.35;;;4.25;;
83761;SDS011;73752;49.594;8.734;2024-03-22T16:40:18;8.15;;;4.70;;
83761;SDS011;73752;49.594;8.734;2024-03-22T16:43:19;7.90;;;4.18;;
83761;SDS011;73752;49.594;8.734;2024-03-22T16:46:20;8.73;;;4.22;;
83761;SDS011;73752;49.594;8.734;2024-03-22T16:49:20;8.90;;;4.82;;
83761;SDS011;73752;49.594;8.734;2024-03-22T16:52:20;8.57;;;4.50;;
83761;SDS011;73752;49.594;8.734;2024-03-22T16:55:20;14.23;;;4.40;;
83761;SDS011;73752;49.594;8.734;2024-03-22T16:58:24;9.05;;;4.05;;
83761;SDS011;73752;49.594;8.734;2024-03-22T17:01:26;9.75;;;3.85;;
83761;SDS011;73752;49.594;8.734;2024-03-22T17:04:26;5.57;;;3.90;;
83761;SDS011;73752;49.594;8.734;2024-03-22T17:07:26;8.60;;;3.83;;
83761;SDS011;73752;49.594;8.734;2024-03-22T17:10:28;6.13;;;3.60;;
83761;SDS011;73752;49.594;8.734;2024-03-22T17:13:28;8.05;;;3.90;;
83761;SDS011;73752;49.594;8.734;2024-03-22T17:16:29;9.50;;;5.45;;
83761;SDS011;73752;49.594;8.734;2024-03-22T17:19:29;9.07;;;4.05;;
83761;SDS011;73752;49.594;8.734;2024-03-22T17:22:29;10.80;;;4.32;;
83761;SDS011;73752;49.594;8.734;2024-03-22T17:25:30;6.30;;;3.47;;
83761;SDS011;73752;49.594;8.734;2024-03-22T17:28:30;11.23;;;4.10;;
83761;SDS011;73752;49.594;8.734;2024-03-22T17:31:30;8.10;;;4.35;;
83761;SDS011;73752;49.594;8.734;2024-03-22T17:34:31;7.50;;;4.30;;
83761;SDS011;73752;49.594;8.734;2024-03-22T17:37:34;8.25;;;4.40;;
83761;SDS011;73752;49.594;8.734;2024-03-22T17:40:35;7.40;;;4.50;;
83761;SDS011;73752;49.594;8.734;2024-03-22T17:43:37;11.55;;;4.65;;
83761;SDS011;73752;49.594;8.734;2024-03-22T17:46:39;15.02;;;4.20;;
83761;SDS011;73752;49.594;8.734;2024-03-22T17:49:39;11.02;;;4.68;;
83761;SDS011;73752;49.594;8.734;2024-03-22T17:52:39;12.00;;;5.03;;